Time;durP1;ratioP1;P1;durP2;ratioP2;P2;SDS_P1;SDS_P2;PMS_P1;PMS_P2;Temp;Humidity;BMP_temperature;BMP_pressure;BME280_temperature;BME280_humidity;BME280_pressure;Samples;Min_cycle;Max_cycle;Signal;HPM_P1;HPM_P2
2021/04/21 00:01:45;;;;;;;43.75;30.65;;;256.80;2252.80;;;;;;5044412;28;20052;-74
2021/04/21 00:04:13;;;;;;;38.92;27.88;;;256.90;2252.80;;;;;;5046635;28;20111;-73
2021/04/21 00:06:41;;;;;;;42.92;29.13;;;256.90;2252.80;;;;;;5047330;28;20028;-73
2021/04/21 00:09:12;;;;;;;38.03;28.08;;;256.90;2252.80;;;;;;5046534;28;20076;-74
2021/04/21 00:11:39;;;;;;;40.10;28.10;;;256.90;2252.80;;;;;;5050107;28;20104;-74
2021/04/21 00:14:06;;;;;;;43.67;28.63;;;256.90;2252.80;;;;;;5054168;28;20524;-73
2021/04/21 00:16:33;;;;;;;41.90;28.73;;;256.90;2252.80;;;;;;5052137;28;20106;-74
2021/04/21 00:19:01;;;;;;;40.05;27.50;;;256.90;2252.80;;;;;;5048052;28;20444;-73
2021/04/21 00:21:28;;;;;;;39.00;27.00;;;281.60;2278.40;;;;;;5053573;28;20027;-74
2021/04/21 00:23:54;;;;;;;38.05;27.65;;;281.60;2278.40;;;;;;5052367;28;20063;-74
2021/04/21 00:26:23;;;;;;;38.47;26.35;;;281.60;2278.40;;;;;;5053694;28;20056;-74
2021/04/21 00:28:51;;;;;;;40.00;26.27;;;281.60;2278.40;;;;;;5053348;28;20013;-73
2021/04/21 00:31:18;;;;;;;38.75;25.73;;;281.60;2278.40;;;;;;5053674;28;20017;-74
2021/04/21 00:33:51;;;;;;;36.50;25.70;;;281.70;2278.40;;;;;;5052264;28;20507;-73
2021/04/21 00:36:19;;;;;;;41.80;27.70;;;281.70;2278.40;;;;;;5053321;28;20025;-73
2021/04/21 00:38:46;;;;;;;38.80;27.95;;;281.70;2278.40;;;;;;5053512;28;20028;-73
2021/04/21 00:41:27;;;;;;;41.20;27.38;;;281.70;2278.40;;;;;;5051846;28;20770;-73
2021/04/21 00:44:16;;;;;;;34.80;24.77;;;281.70;2278.40;;;;;;5053034;28;20039;-72
2021/04/21 00:46:49;;;;;;;43.92;27.42;;;281.70;2278.40;;;;;;5042970;28;20021;-73
2021/04/21 00:49:20;;;;;;;36.78;24.70;;;281.70;2278.40;;;;;;5051700;28;20028;-72
2021/04/21 00:51:53;;;;;;;40.50;25.33;;;281.60;2278.40;;;;;;5053119;28;20032;-73
2021/04/21 00:54:32;;;;;;;36.90;24.13;;;281.70;2278.40;;;;;;5051315;28;20045;-73
2021/04/21 00:57:19;;;;;;;32.80;23.15;;;281.60;2278.40;;;;;;5052785;28;20381;-72
2021/04/21 01:00:12;;;;;;;33.90;22.27;;;281.70;2278.40;;;;;;5060181;28;20029;-72
2021/04/21 01:02:51;;;;;;;31.30;23.67;;;281.70;2278.40;;;;;;5052723;28;20029;-73
2021/04/21 01:05:25;;;;;;;35.80;23.23;;;281.70;2278.40;;;;;;5051695;28;20120;-72
2021/04/21 01:07:54;;;;;;;35.38;23.98;;;281.70;2278.40;;;;;;5052682;28;20025;-73
2021/04/21 01:10:21;;;;;;;36.20;24.38;;;281.70;2278.40;;;;;;5052021;28;20056;-72
2021/04/21 01:12:50;;;;;;;38.92;26.60;;;281.60;2278.40;;;;;;5052166;28;20031;-73
2021/04/21 01:15:18;;;;;;;37.50;26.20;;;281.60;2278.40;;;;;;5051220;28;20400;-73
2021/04/21 01:17:47;;;;;;;41.80;26.60;;;281.60;2278.40;;;;;;5051412;28;20028;-72
2021/04/21 01:20:21;;;;;;;35.97;25.52;;;281.60;2278.40;;;;;;5037076;28;20472;-73
2021/04/21 01:22:47;;;;;;;34.85;25.38;;;281.60;2278.40;;;;;;5045999;28;20078;-72
2021/04/21 01:25:30;;;;;;;39.78;26.17;;;281.60;2278.40;;;;;;5052119;28;20108;-72
2021/04/21 01:28:05;;;;;;;42.03;27.75;;;256.90;2252.80;;;;;;5059100;28;20087;-73
2021/04/21 01:30:33;;;;;;;37.63;25.85;;;256.90;2252.80;;;;;;5048418;28;20017;-72
2021/04/21 01:33:02;;;;;;;38.20;26.42;;;256.80;2252.80;;;;;;5050462;28;20032;-72
2021/04/21 01:35:30;;;;;;;38.55;26.05;;;256.80;2252.80;;;;;;5052399;28;20013;-73
2021/04/21 01:38:02;;;;;;;45.78;28.08;;;256.70;2252.80;;;;;;5050549;28;20455;-73
2021/04/21 01:40:35;;;;;;;40.42;26.52;;;256.70;2252.80;;;;;;5051883;28;20017;-73
2021/04/21 01:43:14;;;;;;;39.80;25.92;;;256.70;2252.80;;;;;;5052450;28;20021;-72
2021/04/21 01:45:40;;;;;;;41.17;26.58;;;256.60;2252.80;;;;;;5051986;28;20013;-73
2021/04/21 01:48:21;;;;;;;42.33;29.13;;;256.60;2252.80;;;;;;5052291;28;20020;-72
2021/04/21 01:50:48;;;;;;;40.25;26.02;;;256.60;2252.80;;;;;;5049284;28;20480;-73
2021/04/21 01:53:17;;;;;;;40.65;26.02;;;256.50;2252.80;;;;;;5057270;28;20500;-73
2021/04/21 01:56:01;;;;;;;39.05;25.15;;;256.50;2252.80;;;;;;5055351;28;20061;-73
2021/04/21 01:58:48;;;;;;;39.55;27.30;;;256.50;2252.80;;;;;;5042820;28;20087;-73
2021/04/21 02:01:36;;;;;;;43.80;26.80;;;256.40;2252.80;;;;;;5057982;28;20399;-73
2021/04/21 02:04:09;;;;;;;39.25;27.08;;;256.40;2252.80;;;;;;5068153;28;20029;-73
2021/04/21 02:06:55;;;;;;;40.60;27.30;;;256.40;2252.80;;;;;;5044027;28;20075;-73
2021/04/21 02:09:39;;;;;;;42.15;27.35;;;256.40;2252.80;;;;;;5051943;28;20021;-73
2021/04/21 02:12:38;;;;;;;44.13;27.77;;;256.30;2252.80;;;;;;5042975;28;20025;-73
2021/04/21 02:15:28;;;;;;;45.28;29.58;;;256.40;2252.80;;;;;;5048706;28;20021;-72
2021/04/21 02:18:12;;;;;;;43.85;27.48;;;256.30;2252.80;;;;;;5043771;28;20048;-73
2021/04/21 02:20:59;;;;;;;42.47;28.25;;;256.30;2252.80;;;;;;5050491;28;20033;-73
2021/04/21 02:23:34;;;;;;;40.08;26.95;;;256.30;2252.80;;;;;;5038328;28;20078;-74
2021/04/21 02:26:25;;;;;;;41.50;28.33;;;256.30;2252.80;;;;;;5051916;28;20436;-73
2021/04/21 02:29:15;;;;;;;41.60;27.08;;;256.30;2252.80;;;;;;5041245;28;20100;-74
2021/04/21 02:31:49;;;;;;;43.25;29.20;;;256.30;2252.80;;;;;;5051448;28;20025;-74
2021/04/21 02:34:37;;;;;;;45.38;26.85;;;256.30;2252.80;;;;;;5051951;28;20029;-73
2021/04/21 02:37:27;;;;;;;41.47;27.90;;;256.30;2252.80;;;;;;5047701;28;20078;-74
2021/04/21 02:39:58;;;;;;;43.85;28.92;;;256.30;2252.80;;;;;;4991124;28;20049;-73
2021/04/21 02:42:28;;;;;;;45.35;29.38;;;256.30;2252.80;;;;;;4990005;28;20628;-73
2021/04/21 02:45:18;;;;;;;43.05;27.95;;;256.30;2252.80;;;;;;4992343;28;20069;-73
2021/04/21 02:48:01;;;;;;;41.35;28.55;;;256.30;2252.80;;;;;;4983143;28;20118;-73
2021/04/21 02:50:44;;;;;;;40.65;27.23;;;256.30;2252.80;;;;;;4993667;28;20058;-73
2021/04/21 02:53:24;;;;;;;41.33;28.27;;;256.30;2252.80;;;;;;4993883;28;20026;-73
2021/04/21 02:56:21;;;;;;;41.22;27.13;;;256.30;2252.80;;;;;;4993603;28;20050;-73
2021/04/21 02:59:15;;;;;;;40.90;28.33;;;256.30;2252.80;;;;;;4988088;28;20105;-72
2021/04/21 03:02:01;;;;;;;43.53;26.00;;;256.30;2252.80;;;;;;4981627;28;20034;-73
2021/04/21 03:05:01;;;;;;;43.17;27.48;;;256.30;2252.80;;;;;;5001429;28;20042;-72
2021/04/21 03:07:44;;;;;;;42.60;25.05;;;256.20;2252.80;;;;;;4990237;28;20065;-72
2021/04/21 03:10:13;;;;;;;43.60;27.17;;;256.30;2252.80;;;;;;4993323;28;20050;-72
2021/04/21 03:12:44;;;;;;;40.45;25.60;;;256.20;2252.80;;;;;;4975295;28;20050;-73
2021/04/21 03:15:15;;;;;;;37.85;26.27;;;256.30;2252.80;;;;;;4993283;28;20061;-73
2021/04/21 03:17:43;;;;;;;39.05;26.10;;;256.30;2252.80;;;;;;5032914;28;20025;-73
2021/04/21 03:20:23;;;;;;;43.25;25.42;;;256.30;2252.80;;;;;;5054546;28;20021;-73
2021/04/21 03:22:56;;;;;;;39.53;26.05;;;256.30;2252.80;;;;;;5053399;28;20040;-73
2021/04/21 03:25:35;;;;;;;37.17;24.20;;;256.20;2252.80;;;;;;5052554;28;20511;-73
2021/04/21 03:28:06;;;;;;;41.60;24.67;;;256.20;2252.80;;;;;;5053261;28;20059;-73
2021/04/21 03:30:34;;;;;;;35.97;24.58;;;256.20;2252.80;;;;;;5041908;28;20769;-73
2021/04/21 03:33:15;;;;;;;40.25;26.63;;;256.20;2252.80;;;;;;5051671;28;20542;-73
2021/04/21 03:35:46;;;;;;;38.05;26.02;;;256.20;2252.80;;;;;;5054507;28;20063;-74
2021/04/21 03:38:14;;;;;;;36.08;25.27;;;256.30;2252.80;;;;;;5046146;28;20053;-73
2021/04/21 03:40:40;;;;;;;36.72;24.88;;;256.30;2252.80;;;;;;5052258;28;20021;-73
2021/04/21 03:43:06;;;;;;;41.38;25.55;;;256.30;2252.80;;;;;;5045403;28;20039;-75
2021/04/21 03:45:33;;;;;;;33.97;23.10;;;256.20;2252.80;;;;;;5049306;28;20024;-74
2021/04/21 03:48:00;;;;;;;32.72;21.63;;;256.20;2252.80;;;;;;5052628;28;20082;-75
2021/04/21 03:50:26;;;;;;;37.35;23.60;;;256.40;2252.80;;;;;;5053798;28;20092;-74
2021/04/21 03:52:58;;;;;;;32.15;22.35;;;256.20;2252.80;;;;;;5052890;28;20052;-74
2021/04/21 03:55:25;;;;;;;35.90;22.95;;;256.20;2252.80;;;;;;5052807;28;20059;-74
2021/04/21 03:57:55;;;;;;;37.38;25.02;;;256.20;2252.80;;;;;;5053019;28;20555;-74
2021/04/21 04:00:21;;;;;;;34.33;23.42;;;256.20;2252.80;;;;;;5054174;28;20040;-74
2021/04/21 04:02:58;;;;;;;34.00;23.13;;;256.20;2252.80;;;;;;5053915;28;20503;-74
2021/04/21 04:05:33;;;;;;;33.50;21.45;;;256.20;2252.80;;;;;;5049670;28;20120;-73
2021/04/21 04:08:06;;;;;;;34.22;22.27;;;256.20;2252.80;;;;;;5043239;28;20032;-73
2021/04/21 04:10:36;;;;;;;33.92;22.52;;;256.20;2252.80;;;;;;5053698;28;20096;-73
2021/04/21 04:13:09;;;;;;;37.97;23.25;;;256.20;2252.80;;;;;;5042098;28;20135;-73
2021/04/21 04:15:36;;;;;;;34.90;23.10;;;256.20;2252.80;;;;;;5050785;28;20029;-74
2021/04/21 04:18:05;;;;;;;35.22;22.77;;;256.20;2252.80;;;;;;5053167;28;20025;-73
2021/04/21 04:20:33;;;;;;;37.35;22.33;;;256.20;2252.80;;;;;;5053931;28;20021;-74
2021/04/21 04:23:04;;;;;;;34.00;22.80;;;256.20;2252.80;;;;;;5038489;28;20075;-75
2021/04/21 04:25:33;;;;;;;34.13;21.63;;;256.20;2252.80;;;;;;5052271;28;20040;-73
2021/04/21 04:28:00;;;;;;;30.77;20.80;;;256.20;2252.80;;;;;;5053575;28;20029;-74
2021/04/21 04:30:26;;;;;;;37.05;23.50;;;256.30;2252.80;;;;;;5053707;28;20376;-74
2021/04/21 04:32:53;;;;;;;34.70;21.73;;;256.30;2252.80;;;;;;5052071;28;20135;-73
2021/04/21 04:35:19;;;;;;;35.42;22.50;;;256.30;2252.80;;;;;;5053341;28;20031;-73
2021/04/21 04:37:47;;;;;;;37.63;20.77;;;256.30;2252.80;;;;;;5053649;28;20033;-73
2021/04/21 04:40:14;;;;;;;34.95;21.63;;;256.30;2252.80;;;;;;5050329;28;20037;-73
2021/04/21 04:42:41;;;;;;;33.65;19.88;;;256.30;2252.80;;;;;;5045707;28;20024;-73
2021/04/21 04:45:08;;;;;;;35.15;20.95;;;256.30;2252.80;;;;;;5050589;28;20024;-73
2021/04/21 04:47:51;;;;;;;35.45;20.73;;;256.30;2252.80;;;;;;5053371;28;20021;-73
2021/04/21 04:50:22;;;;;;;26.08;18.45;;;256.30;2252.80;;;;;;5053260;28;20024;-73
2021/04/21 04:52:50;;;;;;;31.60;21.20;;;256.40;2252.80;;;;;;5053378;28;20092;-73
2021/04/21 04:55:18;;;;;;;35.78;21.23;;;256.50;2252.80;;;;;;5053143;28;20048;-73
2021/04/21 04:57:46;;;;;;;31.88;19.35;;;256.50;2252.80;;;;;;5052983;28;20028;-73
2021/04/21 05:00:16;;;;;;;26.13;18.02;;;256.70;2252.80;;;;;;5051579;28;20373;-74
2021/04/21 05:03:20;;;;;;;25.58;18.33;;;256.80;2252.80;;;;;;5045779;28;20021;-73
2021/04/21 05:05:46;;;;;;;27.00;18.08;;;256.80;2252.80;;;;;;5040738;28;20519;-73
2021/04/21 05:08:15;;;;;;;23.23;17.00;;;256.90;2252.80;;;;;;5052628;28;20028;-73
2021/04/21 05:10:51;;;;;;;30.58;20.73;;;281.70;2278.40;;;;;;5041104;28;20063;-73
2021/04/21 05:13:21;;;;;;;35.05;19.33;;;281.90;2278.40;;;;;;5052576;28;20422;-73
2021/04/21 05:15:52;;;;;;;29.48;19.60;;;282.10;2278.40;;;;;;5040521;28;20033;-73
2021/04/21 05:18:36;;;;;;;31.45;18.05;;;282.10;2278.40;;;;;;5052681;28;20066;-73
2021/04/21 05:21:22;;;;;;;26.38;16.65;;;282.20;2278.40;;;;;;5042114;28;20102;-73
2021/04/21 05:24:15;;;;;;;23.73;16.42;;;282.30;2278.40;;;;;;5052447;28;20486;-73
2021/04/21 05:26:44;;;;;;;31.63;19.23;;;282.40;2278.40;;;;;;5045033;28;20529;-73
2021/04/21 05:29:29;;;;;;;23.38;16.42;;;307.20;2304.00;;;;;;5052378;28;20017;-74
2021/04/21 05:32:12;;;;;;;26.97;18.13;;;307.40;2304.00;;;;;;5051200;28;20065;-73
2021/04/21 05:35:15;;;;;;;24.17;17.30;;;307.70;2304.00;;;;;;5040423;28;20249;-73
2021/04/21 05:38:05;;;;;;;29.50;18.05;;;307.80;2304.00;;;;;;5050908;28;20044;-73
2021/04/21 05:40:54;;;;;;;28.50;18.50;;;307.70;2304.00;;;;;;5052247;28;20112;-72
2021/04/21 05:43:59;;;;;;;28.55;18.58;;;307.70;2304.00;;;;;;5041778;28;20057;-73
2021/04/21 05:46:50;;;;;;;26.05;17.48;;;307.60;2304.00;;;;;;5041081;28;20039;-73
2021/04/21 05:49:46;;;;;;;25.35;17.50;;;307.60;2304.00;;;;;;5051942;28;20021;-73
2021/04/21 05:53:09;;;;;;;23.90;16.90;;;307.50;2304.00;;;;;;5050538;28;20029;-72
2021/04/21 05:56:06;;;;;;;29.38;17.23;;;307.50;2304.00;;;;;;4978977;28;20129;-73
2021/04/21 05:58:38;;;;;;;26.70;16.63;;;307.70;2304.00;;;;;;4973271;28;20035;-72
2021/04/21 06:01:15;;;;;;;25.55;18.35;;;308.00;2252.80;;;;;;4987248;28;20038;-73
2021/04/21 06:03:45;;;;;;;27.60;17.42;;;332.80;2278.40;;;;;;4975895;28;20398;-74
2021/04/21 06:06:11;;;;;;;22.73;16.90;;;333.10;2227.20;;;;;;4969425;28;20046;-73
2021/04/21 06:08:37;;;;;;;30.40;16.52;;;333.10;2227.20;;;;;;4986406;28;20026;-72
2021/04/21 06:11:02;;;;;;;31.77;17.63;;;333.20;2227.20;;;;;;4990463;28;20418;-73
2021/04/21 06:13:32;;;;;;;24.95;15.93;;;333.20;2201.60;;;;;;4994851;28;20034;-73
2021/04/21 06:15:59;;;;;;;23.52;15.88;;;333.50;2201.60;;;;;;4980020;28;20545;-74
2021/04/21 06:18:25;;;;;;;21.45;16.00;;;333.50;2176.00;;;;;;4992708;28;20038;-73
2021/04/21 06:20:52;;;;;;;22.15;16.15;;;333.40;2176.00;;;;;;4979634;28;20034;-73
2021/04/21 06:23:26;;;;;;;20.83;15.00;;;333.60;2176.00;;;;;;4996952;28;20031;-74
2021/04/21 06:26:03;;;;;;;27.92;17.58;;;358.40;2176.00;;;;;;5019924;28;20051;-73
2021/04/21 06:28:29;;;;;;;20.92;15.77;;;358.40;2176.00;;;;;;5051052;28;20033;-73
2021/04/21 06:31:10;;;;;;;21.52;16.05;;;333.60;2176.00;;;;;;5047230;28;20101;-74
2021/04/21 06:33:38;;;;;;;22.25;16.58;;;333.40;2176.00;;;;;;5051482;28;20016;-73
2021/04/21 06:36:05;;;;;;;24.63;15.88;;;333.40;2201.60;;;;;;5043151;28;20033;-75
2021/04/21 06:38:33;;;;;;;28.08;17.52;;;333.40;2227.20;;;;;;5051290;28;20029;-75
2021/04/21 06:40:59;;;;;;;22.98;16.85;;;333.30;2227.20;;;;;;5047146;28;20025;-74
2021/04/21 06:43:28;;;;;;;28.00;17.23;;;333.60;2201.60;;;;;;5048091;28;20412;-73
2021/04/21 06:45:54;;;;;;;20.70;15.95;;;358.40;2176.00;;;;;;5048821;28;20040;-73
2021/04/21 06:48:31;;;;;;;26.92;15.70;;;358.60;2150.40;;;;;;5047994;28;20013;-74
2021/04/21 06:51:12;;;;;;;22.85;16.90;;;358.60;2150.40;;;;;;5047839;28;20469;-74
2021/04/21 06:53:38;;;;;;;21.13;16.02;;;358.90;2099.20;;;;;;5046846;28;20021;-73
2021/04/21 06:56:08;;;;;;;22.60;15.63;;;359.20;2048.00;;;;;;5053424;28;20095;-73
2021/04/21 06:58:35;;;;;;;20.05;15.80;;;359.30;2022.40;;;;;;5046971;28;20017;-73
2021/04/21 07:01:14;;;;;;;22.33;15.18;;;359.30;1996.80;;;;;;5044618;28;20034;-73
2021/04/21 07:03:42;;;;;;;23.15;17.08;;;359.30;1971.20;;;;;;5044214;28;20091;-72
2021/04/21 07:06:08;;;;;;;24.05;18.33;;;359.20;2022.40;;;;;;5044774;28;20025;-75
2021/04/21 07:08:38;;;;;;;25.92;16.17;;;384.00;2022.40;;;;;;5048911;28;20025;-73
2021/04/21 07:11:07;;;;;;;20.85;16.13;;;384.00;1996.80;;;;;;5051124;28;20035;-74
2021/04/21 07:13:41;;;;;;;25.38;17.65;;;384.10;2022.40;;;;;;5043949;28;20387;-73
2021/04/21 07:16:14;;;;;;;27.70;19.27;;;384.40;1996.80;;;;;;5046694;28;20494;-73
2021/04/21 07:18:44;;;;;;;24.40;17.20;;;409.60;1996.80;;;;;;5051062;28;20044;-74
2021/04/21 07:21:11;;;;;;;21.90;17.15;;;409.90;1971.20;;;;;;5046866;28;20021;-73
2021/04/21 07:23:39;;;;;;;25.00;17.48;;;409.70;1945.60;;;;;;5043872;28;20055;-73
2021/04/21 07:26:06;;;;;;;27.50;20.00;;;410.00;1894.40;;;;;;5059755;28;20064;-73
2021/04/21 07:28:37;;;;;;;24.27;17.17;;;410.50;1868.80;;;;;;5047070;28;20026;-74
2021/04/21 07:31:17;;;;;;;20.17;16.30;;;435.20;1868.80;;;;;;5061249;28;20376;-73
2021/04/21 07:33:45;;;;;;;23.02;16.40;;;410.50;1868.80;;;;;;5049052;28;20025;-74
2021/04/21 07:36:13;;;;;;;19.73;16.50;;;435.40;1868.80;;;;;;5047623;28;20041;-74
2021/04/21 07:38:47;;;;;;;24.65;17.55;;;435.20;1792.00;;;;;;5042061;28;20029;-74
2021/04/21 07:41:14;;;;;;;26.00;18.98;;;435.50;1792.00;;;;;;5044425;28;20102;-74
2021/04/21 07:43:43;;;;;;;20.13;17.15;;;435.70;1766.40;;;;;;5043733;28;20431;-74
2021/04/21 07:46:21;;;;;;;22.08;16.02;;;435.70;1740.80;;;;;;5042928;28;20835;-74
2021/04/21 07:48:48;;;;;;;18.75;15.45;;;435.90;1740.80;;;;;;5048409;28;20049;-74
2021/04/21 07:51:17;;;;;;;19.83;16.30;;;435.90;1740.80;;;;;;5043879;28;20024;-74
2021/04/21 07:53:55;;;;;;;19.10;15.23;;;461.00;1715.20;;;;;;5049824;28;20049;-73
2021/04/21 07:56:23;;;;;;;22.67;16.98;;;460.80;1740.80;;;;;;5060260;28;20045;-74
2021/04/21 07:58:50;;;;;;;23.95;17.85;;;461.10;1715.20;;;;;;5045288;28;20033;-74
2021/04/21 08:01:16;;;;;;;17.33;14.15;;;461.30;1715.20;;;;;;5043231;28;20024;-74
2021/04/21 08:03:42;;;;;;;18.58;15.35;;;461.50;1638.40;;;;;;5045224;28;20088;-74
2021/04/21 08:06:08;;;;;;;21.20;17.67;;;461.40;1612.80;;;;;;5044393;28;20037;-74
2021/04/21 08:08:36;;;;;;;23.10;15.38;;;461.50;1638.40;;;;;;5050957;28;20023;-73
2021/04/21 08:11:04;;;;;;;16.95;14.40;;;461.70;1638.40;;;;;;5051533;28;20078;-74
2021/04/21 08:13:41;;;;;;;16.70;14.60;;;486.40;1587.20;;;;;;5038919;28;20028;-74
2021/04/21 08:16:19;;;;;;;23.30;15.90;;;486.60;1612.80;;;;;;5049736;28;20116;-74
2021/04/21 08:18:45;;;;;;;18.25;14.48;;;486.40;1587.20;;;;;;5040131;28;20033;-74
2021/04/21 08:21:11;;;;;;;18.38;15.80;;;486.40;1561.60;;;;;;5049924;28;20087;-74
2021/04/21 08:23:37;;;;;;;18.75;15.07;;;486.90;1561.60;;;;;;5042137;28;20037;-74
2021/04/21 08:26:03;;;;;;;19.63;15.20;;;487.10;1510.40;;;;;;5041605;28;20037;-72
2021/04/21 08:28:29;;;;;;;17.15;14.80;;;486.60;1536.00;;;;;;5046194;28;20055;-73
2021/04/21 08:31:00;;;;;;;17.92;15.07;;;487.00;1561.60;;;;;;5044982;28;20053;-74
2021/04/21 08:33:27;;;;;;;21.38;14.48;;;486.90;1536.00;;;;;;5044195;28;20447;-74
2021/04/21 08:35:53;;;;;;;21.10;16.38;;;487.00;1536.00;;;;;;5050695;28;20037;-73
2021/04/21 08:38:19;;;;;;;16.35;13.48;;;512.00;1484.80;;;;;;5042192;28;20096;-74
2021/04/21 08:40:45;;;;;;;18.90;16.40;;;487.10;1484.80;;;;;;5048952;28;20779;-75
2021/04/21 08:43:14;;;;;;;16.50;14.75;;;487.30;1459.20;;;;;;5038709;28;20033;-74
2021/04/21 08:45:40;;;;;;;22.13;16.15;;;487.00;1510.40;;;;;;5047590;28;20021;-74
2021/04/21 08:48:07;;;;;;;20.75;15.82;;;512.10;1484.80;;;;;;5039406;28;20040;-73
2021/04/21 08:50:36;;;;;;;19.17;16.15;;;512.30;1459.20;;;;;;5047973;28;20032;-73
2021/04/21 08:53:09;;;;;;;19.55;15.50;;;487.30;1484.80;;;;;;5043006;28;20526;-74
2021/04/21 08:55:38;;;;;;;21.38;15.45;;;512.30;1408.00;;;;;;5039433;28;20056;-74
2021/04/21 08:58:04;;;;;;;23.60;18.33;;;512.20;1408.00;;;;;;5045631;28;20033;-73
2021/04/21 09:00:30;;;;;;;23.98;16.65;;;512.50;1408.00;;;;;;5041936;28;20040;-74
2021/04/21 09:02:56;;;;;;;17.05;15.23;;;512.30;1459.20;;;;;;5046212;28;20029;-73
2021/04/21 09:05:21;;;;;;;18.80;16.00;;;512.50;1382.40;;;;;;5045840;28;20040;-73
2021/04/21 09:07:47;;;;;;;22.25;16.80;;;512.80;1356.80;;;;;;5042812;28;20456;-73
2021/04/21 09:10:17;;;;;;;29.08;21.45;;;512.30;1408.00;;;;;;5060937;28;20091;-75
2021/04/21 09:12:43;;;;;;;22.67;17.20;;;537.80;1356.80;;;;;;5051461;28;20056;-75
2021/04/21 09:15:11;;;;;;;21.45;17.30;;;538.10;1356.80;;;;;;5043595;28;20037;-73
2021/04/21 09:17:48;;;;;;;22.05;16.33;;;538.10;1331.20;;;;;;5043721;28;20079;-74
2021/04/21 09:20:16;;;;;;;21.77;16.13;;;538.10;1331.20;;;;;;5039317;28;20116;-74
2021/04/21 09:23:01;;;;;;;17.60;15.65;;;512.30;1331.20;;;;;;5042401;28;20029;-74
2021/04/21 09:25:37;;;;;;;19.95;15.95;;;512.70;1305.60;;;;;;5046643;28;20491;-73
2021/04/21 09:28:04;;;;;;;22.48;18.15;;;563.30;1254.40;;;;;;5057898;28;20033;-74
2021/04/21 09:30:30;;;;;;;21.20;16.45;;;563.60;1254.40;;;;;;5044761;28;20087;-73
2021/04/21 09:32:58;;;;;;;19.08;15.57;;;589.20;1177.60;;;;;;5045021;28;20021;-73
2021/04/21 09:35:33;;;;;;;20.35;16.83;;;589.30;1203.20;;;;;;5041731;28;20060;-73
2021/04/21 09:38:11;;;;;;;18.58;15.50;;;589.10;1203.20;;;;;;5044667;28;20029;-74
2021/04/21 09:40:38;;;;;;;18.63;15.68;;;563.50;1280.00;;;;;;5066126;28;20076;-73
2021/04/21 09:43:06;;;;;;;20.27;15.25;;;563.40;1254.40;;;;;;5045913;28;20033;-73
2021/04/21 09:45:33;;;;;;;17.40;15.50;;;538.40;1254.40;;;;;;5045383;28;20021;-73
2021/04/21 09:48:10;;;;;;;18.42;15.43;;;563.20;1254.40;;;;;;5040347;28;20070;-73
2021/04/21 09:50:38;;;;;;;19.90;14.55;;;538.40;1228.80;;;;;;5043164;28;20018;-74
2021/04/21 09:53:29;;;;;;;18.05;14.95;;;538.20;1254.40;;;;;;5040815;28;20028;-72
2021/04/21 09:56:04;;;;;;;18.73;13.90;;;537.60;1280.00;;;;;;5039629;28;20089;-72
2021/04/21 09:58:36;;;;;;;21.05;15.68;;;512.90;1280.00;;;;;;5037385;28;20128;-71
2021/04/21 10:01:16;;;;;;;18.88;13.63;;;538.20;1228.80;;;;;;5040442;28;20028;-71
2021/04/21 10:03:41;;;;;;;18.60;13.73;;;538.20;1254.40;;;;;;5039556;28;20029;-71
2021/04/21 10:06:22;;;;;;;21.65;15.40;;;563.80;1228.80;;;;;;5039685;28;20044;-72
2021/04/21 10:08:48;;;;;;;24.42;14.70;;;563.70;1203.20;;;;;;5041411;28;20029;-72
2021/04/21 10:11:14;;;;;;;20.05;15.73;;;563.40;1228.80;;;;;;5038423;28;20389;-72
2021/04/21 10:13:42;;;;;;;18.17;14.18;;;563.70;1228.80;;;;;;5045956;28;20028;-72
2021/04/21 10:16:10;;;;;;;16.95;14.23;;;564.00;1177.60;;;;;;5043641;28;20025;-71
2021/04/21 10:18:37;;;;;;;16.88;14.48;;;563.70;1177.60;;;;;;5045814;28;20119;-71
2021/04/21 10:21:04;;;;;;;19.27;14.73;;;588.90;1152.00;;;;;;5046605;28;20345;-72
2021/04/21 10:23:31;;;;;;;18.27;15.27;;;589.30;1126.40;;;;;;5037676;28;20017;-72
2021/04/21 10:26:07;;;;;;;17.88;15.95;;;589.30;1177.60;;;;;;5038808;28;20111;-72
2021/04/21 10:28:34;;;;;;;18.52;15.77;;;589.10;1177.60;;;;;;5038320;28;20017;-72
2021/04/21 10:31:05;;;;;;;21.80;18.50;;;589.30;1177.60;;;;;;5041066;28;20025;-72
2021/04/21 10:33:31;;;;;;;18.75;14.38;;;589.70;1126.40;;;;;;5037056;28;20564;-73
2021/04/21 10:35:57;;;;;;;16.13;14.18;;;614.90;1049.60;;;;;;5030985;28;20032;-72
2021/04/21 10:38:26;;;;;;;18.73;14.43;;;614.80;1024.00;;;;;;5036958;28;20067;-71
2021/04/21 10:41:22;;;;;;;19.50;15.43;;;640.00;998.40;;;;;;5041529;28;20566;-71
2021/04/21 10:43:49;;;;;;;20.30;14.77;;;614.80;1075.20;;;;;;5035784;28;20080;-72
2021/04/21 10:46:16;;;;;;;20.70;17.17;;;589.40;1100.80;;;;;;5036062;28;20036;-72
2021/04/21 10:48:46;;;;;;;18.95;13.75;;;589.40;1126.40;;;;;;5044447;28;20373;-73
2021/04/21 10:51:40;;;;;;;17.48;14.00;;;563.80;1100.80;;;;;;5037056;28;20035;-73
2021/04/21 10:54:09;;;;;;;15.45;13.85;;;588.90;1075.20;;;;;;5039095;28;20144;-73
2021/04/21 10:56:37;;;;;;;17.25;14.60;;;563.70;1126.40;;;;;;5043653;28;20045;-72
2021/04/21 10:59:04;;;;;;;16.73;14.50;;;563.50;1177.60;;;;;;5044993;28;20376;-72
2021/04/21 11:01:33;;;;;;;19.65;14.80;;;563.90;1177.60;;;;;;5047862;28;20483;-72
2021/04/21 11:04:00;;;;;;;17.98;15.70;;;589.20;1100.80;;;;;;5049815;28;20039;-74
2021/04/21 11:06:57;;;;;;;15.93;12.98;;;563.60;1177.60;;;;;;5043451;28;20489;-74
2021/04/21 11:09:52;;;;;;;17.08;13.38;;;588.80;1100.80;;;;;;4947756;28;20135;-73
2021/04/21 11:12:49;;;;;;;15.73;11.95;;;615.30;998.40;;;;;;4961380;28;20745;-73
2021/04/21 11:15:35;;;;;;;14.52;12.32;;;640.50;947.20;;;;;;4946579;28;20035;-74
2021/04/21 11:18:12;;;;;;;19.38;15.80;;;588.90;1075.20;;;;;;4952812;28;20027;-73
2021/04/21 11:20:47;;;;;;;19.40;13.73;;;538.30;1228.80;;;;;;4946959;28;20058;-74
2021/04/21 11:23:48;;;;;;;15.30;12.23;;;487.20;1356.80;;;;;;4960128;28;20031;-75
2021/04/21 11:26:35;;;;;;;15.88;12.27;;;461.50;1484.80;;;;;;4964399;28;20458;-76
2021/04/21 11:29:18;;;;;;;16.92;14.38;;;460.90;1484.80;;;;;;4957083;28;20038;-74
2021/04/21 11:31:48;;;;;;;17.70;15.20;;;460.80;1587.20;;;;;;4962941;28;20504;-74
2021/04/21 11:34:14;;;;;;;22.17;15.75;;;461.00;1561.60;;;;;;4953192;28;20031;-74
2021/04/21 11:36:51;;;;;;;19.50;15.05;;;461.00;1536.00;;;;;;4943184;28;20031;-74
2021/04/21 11:39:44;;;;;;;19.30;17.25;;;461.10;1561.60;;;;;;4958329;28;20034;-73
2021/04/21 11:42:31;;;;;;;19.85;16.90;;;460.80;1536.00;;;;;;4943499;28;20113;-73
2021/04/21 11:45:22;;;;;;;24.70;21.08;;;435.90;1561.60;;;;;;4957157;28;20041;-73
2021/04/21 11:47:51;;;;;;;25.50;21.42;;;435.80;1638.40;;;;;;5048416;28;20028;-73
2021/04/21 11:50:17;;;;;;;27.42;20.92;;;435.90;1638.40;;;;;;5047778;28;20032;-73
2021/04/21 11:52:57;;;;;;;26.42;20.75;;;461.10;1638.40;;;;;;5062866;28;20095;-73
2021/04/21 11:55:42;;;;;;;23.25;18.88;;;461.50;1587.20;;;;;;5049079;28;20076;-73
2021/04/21 11:58:25;;;;;;;23.90;19.10;;;486.80;1510.40;;;;;;5048014;28;20033;-73
2021/04/21 12:00:52;;;;;;;27.00;20.40;;;512.10;1459.20;;;;;;5041868;28;20032;-74
2021/04/21 12:03:24;;;;;;;24.80;18.20;;;563.70;1331.20;;;;;;5052169;28;20060;-73
2021/04/21 12:05:52;;;;;;;21.55;17.70;;;589.60;1177.60;;;;;;5048241;28;20411;-72
2021/04/21 12:08:24;;;;;;;28.55;20.45;;;615.30;1100.80;;;;;;5047771;28;20025;-73
2021/04/21 12:10:50;;;;;;;26.17;19.98;;;614.50;1177.60;;;;;;5045470;28;20032;-72
2021/04/21 12:13:21;;;;;;;26.48;20.60;;;588.90;1228.80;;;;;;5047482;28;20404;-72
2021/04/21 12:15:54;;;;;;;30.48;19.85;;;538.20;1280.00;;;;;;5046335;28;20073;-73
2021/04/21 12:18:32;;;;;;;25.27;20.98;;;512.80;1356.80;;;;;;5042278;28;20452;-73
2021/04/21 12:20:59;;;;;;;25.33;20.98;;;512.00;1433.60;;;;;;5046318;28;20029;-73
2021/04/21 12:23:36;;;;;;;27.25;20.98;;;512.00;1433.60;;;;;;5050247;28;20032;-73
2021/04/21 12:26:04;;;;;;;27.35;21.85;;;512.20;1433.60;;;;;;5052909;28;20024;-73
2021/04/21 12:28:48;;;;;;;25.85;19.33;;;512.30;1408.00;;;;;;5061141;28;20549;-73
2021/04/21 12:31:15;;;;;;;25.88;20.42;;;512.40;1382.40;;;;;;5040151;28;20041;-73